createdAt,value
2022-09-23T00:01:47.542Z,100.00
2022-09-23T00:03:51.532Z,100.00
2022-09-23T00:05:59.621Z,100.00
2022-09-23T00:08:02.485Z,100.00
2022-09-23T00:10:06.934Z,100.00
2022-09-23T00:12:10.255Z,100.00
2022-09-23T00:14:13.033Z,100.00
2022-09-23T00:16:18.030Z,100.00
2022-09-23T00:18:21.049Z,100.00
2022-09-23T00:20:25.208Z,100.00
2022-09-23T00:22:27.783Z,100.00
2022-09-23T00:24:32.339Z,100.00
2022-09-23T00:26:35.259Z,100.00
2022-09-23T00:28:38.282Z,100.00
2022-09-23T00:30:41.981Z,100.00
2022-09-23T00:32:44.593Z,100.00
2022-09-23T00:34:47.855Z,100.00
2022-09-23T00:36:51.770Z,100.00
2022-09-23T00:38:54.982Z,100.00
2022-09-23T00:40:58.269Z,100.00
2022-09-23T00:43:01.926Z,100.00
2022-09-23T00:45:07.740Z,100.00
2022-09-23T00:47:15.809Z,100.00
2022-09-23T00:49:25.271Z,100.00
2022-09-23T00:51:33.428Z,100.00
2022-09-23T00:53:38.323Z,100.00
2022-09-23T00:55:44.782Z,100.00
2022-09-23T00:57:48.593Z,100.00
2022-09-23T00:59:51.941Z,100.00
2022-09-23T01:01:57.013Z,100.00
2022-09-23T01:04:00.293Z,100.00
2022-09-23T01:06:03.163Z,100.00
2022-09-23T01:08:06.097Z,100.00
2022-09-23T01:10:13.447Z,100.00
2022-09-23T01:12:33.372Z,100.00
2022-09-23T01:14:45.013Z,100.00
2022-09-23T01:16:55.699Z,100.00
2022-09-23T01:19:08.376Z,100.00
2022-09-23T01:21:19.339Z,100.00
2022-09-23T01:24:17.263Z,100.00
2022-09-23T01:26:38.122Z,100.00
2022-09-23T01:29:00.911Z,100.00
2022-09-23T01:31:09.913Z,100.00
2022-09-23T01:33:19.696Z,100.00
2022-09-23T01:35:30.722Z,100.00
2022-09-23T01:37:41.165Z,100.00
2022-09-23T01:39:53.570Z,100.00
2022-09-23T01:42:03.474Z,100.00
2022-09-23T01:44:11.391Z,100.00
2022-09-23T01:46:20.659Z,100.00
2022-09-23T01:48:30.252Z,100.00
2022-09-23T01:50:54.673Z,100.00
2022-09-23T01:53:02.771Z,100.00
2022-09-23T01:55:11.190Z,100.00
2022-09-23T01:57:18.751Z,100.00
2022-09-23T01:59:27.093Z,100.00
2022-09-23T02:01:37.626Z,100.00
2022-09-23T02:03:46.386Z,100.00
2022-09-23T02:05:54.112Z,100.00
2022-09-23T02:07:59.894Z,100.00
2022-09-23T02:10:08.646Z,100.00
2022-09-23T02:12:16.810Z,100.00
2022-09-23T02:14:25.508Z,100.00
2022-09-23T02:16:32.938Z,100.00
2022-09-23T02:18:46.052Z,100.00
2022-09-23T02:20:53.910Z,100.00
2022-09-23T02:23:03.015Z,100.00
2022-09-23T02:25:07.415Z,100.00
2022-09-23T02:27:19.695Z,100.00
2022-09-23T02:29:26.938Z,100.00
2022-09-23T02:31:39.612Z,100.00
2022-09-23T02:33:44.589Z,100.00
2022-09-23T02:35:55.191Z,100.00
2022-09-23T02:38:09.587Z,100.00
2022-09-23T02:40:23.513Z,100.00
2022-09-23T02:42:35.537Z,100.00
2022-09-23T02:44:38.163Z,100.00
2022-09-23T02:46:43.175Z,100.00
2022-09-23T02:48:51.043Z,100.00
2022-09-23T02:50:54.342Z,100.00
2022-09-23T02:52:57.009Z,100.00
2022-09-23T02:55:00.817Z,100.00
2022-09-23T02:57:06.719Z,100.00
2022-09-23T02:59:10.456Z,100.00
2022-09-23T03:01:21.897Z,100.00
2022-09-23T03:03:39.107Z,100.00
2022-09-23T03:05:49.956Z,100.00
2022-09-23T03:08:06.456Z,100.00
2022-09-23T03:10:16.427Z,100.00
2022-09-23T03:12:34.299Z,100.00
2022-09-23T03:14:44.390Z,100.00
2022-09-23T03:16:55.778Z,100.00
2022-09-23T03:19:12.276Z,100.00
2022-09-23T03:21:20.577Z,100.00
2022-09-23T03:23:26.940Z,100.00
2022-09-23T03:25:33.185Z,100.00
2022-09-23T03:27:38.041Z,100.00
2022-09-23T03:29:42.295Z,100.00
2022-09-23T03:31:45.952Z,100.00
2022-09-23T03:33:53.743Z,100.00
2022-09-23T03:36:20.052Z,100.00
2022-09-23T03:38:26.147Z,100.00
2022-09-23T03:40:32.778Z,100.00
2022-09-23T03:42:37.450Z,100.00
2022-09-23T03:44:44.522Z,100.00
2022-09-23T03:46:49.781Z,100.00
2022-09-23T03:48:52.484Z,100.00
2022-09-23T03:50:55.097Z,100.00
2022-09-23T03:52:59.311Z,100.00
2022-09-23T03:55:02.188Z,100.00
2022-09-23T03:57:05.230Z,100.00
2022-09-23T03:59:07.984Z,100.00
2022-09-23T04:01:10.642Z,100.00
2022-09-23T04:03:13.326Z,100.00
2022-09-23T04:05:16.501Z,100.00
2022-09-23T04:07:19.154Z,100.00
2022-09-23T04:09:23.462Z,100.00
2022-09-23T04:11:26.025Z,100.00
2022-09-23T04:13:29.348Z,100.00
2022-09-23T04:15:32.050Z,100.00
2022-09-23T04:17:34.716Z,100.00
2022-09-23T04:19:37.364Z,100.00
2022-09-23T04:21:40.424Z,100.00
2022-09-23T04:23:43.086Z,100.00
2022-09-23T04:25:48.378Z,100.00
2022-09-23T04:27:51.062Z,100.00
2022-09-23T04:29:53.679Z,100.00
2022-09-23T04:31:56.395Z,100.00
2022-09-23T04:33:59.399Z,100.00
2022-09-23T04:36:02.775Z,100.00
2022-09-23T04:38:05.621Z,100.00
2022-09-23T04:40:09.701Z,100.00
2022-09-23T04:42:14.013Z,100.00
2022-09-23T04:44:18.857Z,100.00
2022-09-23T04:46:21.516Z,100.00
2022-09-23T04:48:24.129Z,100.00
2022-09-23T04:50:27.192Z,100.00
2022-09-23T04:52:32.171Z,100.00
2022-09-23T04:54:34.913Z,100.00
2022-09-23T04:56:37.547Z,100.00
2022-09-23T04:58:42.239Z,100.00
2022-09-23T05:00:44.904Z,100.00
2022-09-23T05:02:49.758Z,100.00
2022-09-23T05:04:52.359Z,100.00
2022-09-23T05:06:55.972Z,100.00
2022-09-23T05:09:01.960Z,100.00
2022-09-23T05:11:06.099Z,100.00
2022-09-23T05:13:08.817Z,100.00
2022-09-23T05:15:13.074Z,100.00
2022-09-23T05:17:15.812Z,100.00
2022-09-23T05:19:18.409Z,100.00
2022-09-23T05:21:22.839Z,100.00
2022-09-23T05:23:26.028Z,100.00
2022-09-23T05:25:28.705Z,100.00
2022-09-23T05:27:31.330Z,100.00
2022-09-23T05:29:34.804Z,100.00
2022-09-23T05:31:38.730Z,100.00
2022-09-23T05:33:42.280Z,100.00
2022-09-23T05:35:47.985Z,100.00
2022-09-23T05:37:50.599Z,100.00
2022-09-23T05:39:53.169Z,100.00
2022-09-23T05:41:56.044Z,100.00
2022-09-23T05:43:59.680Z,100.00
2022-09-23T05:46:07.296Z,100.00
2022-09-23T05:48:12.241Z,100.00
2022-09-23T05:50:14.902Z,100.00
2022-09-23T05:52:17.655Z,100.00
2022-09-23T05:54:20.278Z,100.00
2022-09-23T05:56:24.906Z,100.00
2022-09-23T05:58:28.160Z,100.00
2022-09-23T06:00:30.778Z,100.00
2022-09-23T06:02:33.458Z,100.00
2022-09-23T06:04:37.662Z,100.00
2022-09-23T06:06:42.311Z,100.00
2022-09-23T06:08:45.189Z,100.00
2022-09-23T06:10:53.607Z,100.00
2022-09-23T06:12:57.450Z,100.00
2022-09-23T06:15:00.580Z,100.00
2022-09-23T06:17:03.237Z,100.00
2022-09-23T06:19:07.009Z,100.00
2022-09-23T06:21:13.750Z,100.00
2022-09-23T06:23:16.400Z,100.00
2022-09-23T06:25:19.551Z,100.00
2022-09-23T06:27:22.133Z,100.00
2022-09-23T06:29:24.963Z,100.00
2022-09-23T06:31:27.827Z,100.00
2022-09-23T06:33:36.485Z,100.00
2022-09-23T06:35:40.312Z,100.00
2022-09-23T06:37:44.658Z,100.00
2022-09-23T06:39:47.251Z,100.00
2022-09-23T06:41:49.877Z,100.00
2022-09-23T06:43:52.484Z,100.00
2022-09-23T06:45:55.655Z,100.00
2022-09-23T06:47:59.134Z,100.00
2022-09-23T06:50:01.966Z,100.00
2022-09-23T06:52:06.128Z,100.00
2022-09-23T06:54:10.988Z,100.00
2022-09-23T06:56:14.113Z,100.00
2022-09-23T06:58:16.757Z,100.00
2022-09-23T07:00:19.535Z,100.00
2022-09-23T07:02:22.290Z,100.00
2022-09-23T07:04:29.140Z,100.00
2022-09-23T07:06:32.002Z,97.83
2022-09-23T07:08:35.582Z,96.08
2022-09-23T07:10:39.621Z,97.34
2022-09-23T07:12:42.574Z,97.47
2022-09-23T07:14:46.030Z,96.44
2022-09-23T07:16:50.470Z,94.48
2022-09-23T07:18:53.440Z,92.97
2022-09-23T07:20:58.752Z,92.01
2022-09-23T07:23:01.310Z,91.54
2022-09-23T07:25:03.971Z,86.32
2022-09-23T07:27:08.092Z,85.75
2022-09-23T07:29:14.253Z,85.80
2022-09-23T07:31:30.232Z,85.09
2022-09-23T07:33:39.799Z,83.89
2022-09-23T07:35:43.594Z,82.79
2022-09-23T07:37:47.038Z,83.08
2022-09-23T07:39:50.977Z,83.14
2022-09-23T07:41:53.578Z,82.76
2022-09-23T07:44:00.366Z,81.61
2022-09-23T07:46:06.938Z,80.29
2022-09-23T07:48:09.547Z,81.44
2022-09-23T07:50:12.412Z,80.45
2022-09-23T07:52:15.018Z,81.82
2022-09-23T07:54:18.416Z,81.76
2022-09-23T07:56:22.894Z,80.10
2022-09-23T07:58:26.824Z,82.25
2022-09-23T08:00:31.178Z,84.03
2022-09-23T08:02:33.843Z,84.55
2022-09-23T08:04:36.878Z,84.95
2022-09-23T08:06:42.637Z,84.23
2022-09-23T08:08:47.166Z,85.62
2022-09-23T08:10:52.628Z,84.43
2022-09-23T08:12:55.294Z,85.99
2022-09-23T08:14:59.521Z,85.53
2022-09-23T08:17:03.525Z,86.69
2022-09-23T08:19:06.505Z,85.19
2022-09-23T08:21:09.268Z,85.46
2022-09-23T08:23:12.598Z,85.56
2022-09-23T08:25:20.462Z,85.61
2022-09-23T08:27:24.460Z,85.03
2022-09-23T08:29:27.300Z,83.23
2022-09-23T08:31:29.968Z,81.94
2022-09-23T08:33:33.901Z,82.69
2022-09-23T08:35:36.482Z,79.11
2022-09-23T08:37:39.066Z,79.44
2022-09-23T08:39:41.646Z,77.10
2022-09-23T08:41:49.907Z,76.62
2022-09-23T08:43:57.129Z,71.86
2022-09-23T08:46:03.571Z,73.75
2022-09-23T08:48:12.856Z,69.25
2022-09-23T08:50:21.287Z,70.30
2022-09-23T08:52:30.406Z,72.03
2022-09-23T08:54:34.158Z,69.50
2022-09-23T08:56:38.850Z,68.64
2022-09-23T08:58:54.804Z,66.65
2022-09-23T09:01:11.819Z,70.38
2022-09-23T09:03:22.069Z,65.90
2022-09-23T09:05:28.566Z,67.58
2022-09-23T09:07:37.672Z,72.36
2022-09-23T09:09:46.913Z,72.33
2022-09-23T09:11:52.319Z,72.19
2022-09-23T09:14:04.115Z,68.91
2022-09-23T09:16:48.374Z,67.55
2022-09-23T09:18:53.603Z,63.47
2022-09-23T09:21:01.121Z,61.77
2022-09-23T09:23:09.815Z,64.37
2022-09-23T09:25:45.172Z,60.71
2022-09-23T09:27:48.633Z,65.04
2022-09-23T09:29:54.532Z,62.54
2022-09-23T09:31:57.994Z,62.98
2022-09-23T09:34:06.161Z,63.85
2022-09-23T09:36:19.926Z,60.92
2022-09-23T09:38:22.674Z,58.55
2022-09-23T09:40:25.416Z,58.98
2022-09-23T09:42:35.656Z,56.81
2022-09-23T09:44:45.049Z,57.33
2022-09-23T09:46:54.696Z,56.18
2022-09-23T09:49:01.648Z,55.77
2022-09-23T09:51:19.938Z,56.09
2022-09-23T09:53:26.129Z,55.00
2022-09-23T09:55:29.893Z,56.23
2022-09-23T09:57:38.158Z,57.68
2022-09-23T09:59:44.038Z,58.82
2022-09-23T10:01:47.164Z,56.68
2022-09-23T10:03:54.356Z,54.33
2022-09-23T10:06:00.075Z,54.45
2022-09-23T10:08:24.534Z,52.79
2022-09-23T10:10:35.240Z,53.03
2022-09-23T10:12:45.683Z,51.05
2022-09-23T10:14:51.324Z,50.73
2022-09-23T10:17:05.209Z,52.41
2022-09-23T10:19:15.813Z,51.21
2022-09-23T10:21:27.597Z,55.68
2022-09-23T10:23:33.344Z,53.92
2022-09-23T10:25:37.523Z,56.23
2022-09-23T10:27:40.172Z,57.19
2022-09-23T10:29:50.812Z,57.38
2022-09-23T10:32:20.394Z,54.81
2022-09-23T10:34:25.061Z,55.84
2022-09-23T10:36:28.629Z,55.82
2022-09-23T10:38:32.587Z,54.74
2022-09-23T10:40:56.770Z,57.15
2022-09-23T10:43:35.339Z,56.58
2022-09-23T10:45:58.163Z,56.07
2022-09-23T10:48:10.876Z,56.52
2022-09-23T10:50:25.490Z,57.37
2022-09-23T10:52:46.471Z,57.83
2022-09-23T10:55:05.016Z,57.67
2022-09-23T10:57:37.560Z,57.29
2022-09-23T10:59:56.164Z,57.84
2022-09-23T11:02:16.614Z,57.91
2022-09-23T11:04:41.387Z,59.16
2022-09-23T11:06:54.129Z,57.61
2022-09-23T11:09:10.439Z,56.26
2022-09-23T11:11:28.944Z,57.53
2022-09-23T11:13:54.064Z,58.19
2022-09-23T11:16:08.502Z,57.93
2022-09-23T11:18:38.792Z,57.91
2022-09-23T11:20:46.114Z,55.21
2022-09-23T11:23:07.658Z,57.88
2022-09-23T11:25:30.172Z,54.98
2022-09-23T11:27:51.708Z,56.40
2022-09-23T11:30:04.326Z,56.50
2022-09-23T11:32:27.788Z,56.60
2022-09-23T11:34:56.970Z,56.31
2022-09-23T11:37:04.740Z,56.50
2022-09-23T11:39:13.647Z,58.18
2022-09-23T11:41:20.605Z,60.07
2022-09-23T11:43:28.573Z,59.25
2022-09-23T11:45:34.908Z,58.17
2022-09-23T11:47:44.865Z,57.97
2022-09-23T11:49:54.162Z,58.05
2022-09-23T11:52:06.300Z,57.89
2022-09-23T11:54:20.384Z,58.17
2022-09-23T11:56:35.191Z,56.46
2022-09-23T11:58:50.135Z,56.71
2022-09-23T12:01:02.051Z,55.77
2022-09-23T12:03:15.595Z,57.20
2022-09-23T12:05:23.351Z,57.26
2022-09-23T12:07:31.991Z,56.11
2022-09-23T12:09:59.311Z,57.08
2022-09-23T12:12:10.829Z,56.94
2022-09-23T12:14:21.829Z,57.82
2022-09-23T12:16:41.035Z,55.30
2022-09-23T12:18:54.490Z,56.62
2022-09-23T12:21:27.089Z,56.20
2022-09-23T12:23:46.548Z,56.21
2022-09-23T12:25:54.071Z,55.81
2022-09-23T12:28:03.547Z,57.98
2022-09-23T12:30:15.636Z,58.47
2022-09-23T12:32:19.377Z,59.09
2022-09-23T12:34:27.943Z,60.70
2022-09-23T12:36:35.274Z,60.80
2022-09-23T12:38:40.380Z,60.36
2022-09-23T12:40:44.551Z,60.23
2022-09-23T12:42:48.768Z,59.46
2022-09-23T12:44:51.848Z,58.77
2022-09-23T12:47:28.830Z,58.08
2022-09-23T12:49:39.168Z,58.84
2022-09-23T12:52:15.315Z,55.81
2022-09-23T12:54:25.568Z,57.66
2022-09-23T12:56:50.492Z,57.35
2022-09-23T12:59:00.563Z,57.13
2022-09-23T13:01:17.908Z,56.77
2022-09-23T13:03:40.535Z,56.58
2022-09-23T13:06:04.809Z,56.11
2022-09-23T13:08:10.578Z,56.40
2022-09-23T13:10:29.868Z,56.53
2022-09-23T13:12:36.594Z,57.12
2022-09-23T13:14:44.945Z,55.84
2022-09-23T13:16:48.161Z,56.26
2022-09-23T13:18:54.131Z,57.23
2022-09-23T13:20:57.055Z,58.07
2022-09-23T13:23:18.800Z,58.56
2022-09-23T13:25:25.367Z,56.11
2022-09-23T13:27:31.018Z,55.38
2022-09-23T13:29:44.427Z,56.17
2022-09-23T13:31:48.329Z,56.62
2022-09-23T13:33:55.415Z,57.44
2022-09-23T13:36:04.198Z,57.59
2022-09-23T13:38:19.597Z,57.92
2022-09-23T13:40:24.785Z,58.30
2022-09-23T13:42:30.058Z,58.16
2022-09-23T13:44:32.764Z,59.84
2022-09-23T13:46:43.929Z,60.42
2022-09-23T13:48:48.679Z,61.96
2022-09-23T13:50:53.666Z,60.99
2022-09-23T13:52:59.988Z,61.08
2022-09-23T13:55:02.575Z,60.48
2022-09-23T13:57:05.445Z,60.74
2022-09-23T13:59:24.724Z,59.67
2022-09-23T14:01:33.021Z,60.33
2022-09-23T14:03:39.356Z,59.43
2022-09-23T14:05:43.126Z,59.47
2022-09-23T14:07:45.963Z,60.26
2022-09-23T14:09:50.692Z,59.52
2022-09-23T14:11:53.440Z,60.79
2022-09-23T14:13:56.814Z,59.28
2022-09-23T14:16:02.967Z,59.10
2022-09-23T14:18:08.392Z,58.65
2022-09-23T14:20:15.830Z,59.18
2022-09-23T14:22:26.557Z,60.28
2022-09-23T14:24:34.210Z,59.64
2022-09-23T14:26:37.566Z,60.16
2022-09-23T14:28:40.246Z,59.95
2022-09-23T14:30:46.065Z,61.54
2022-09-23T14:32:49.059Z,60.95
2022-09-23T14:34:53.225Z,60.74
2022-09-23T14:37:14.839Z,61.68
2022-09-23T14:39:17.568Z,61.63
2022-09-23T14:41:25.508Z,62.44
2022-09-23T14:43:29.997Z,62.87
2022-09-23T14:45:34.670Z,61.44
2022-09-23T14:47:37.736Z,61.75
2022-09-23T14:50:00.460Z,62.36
2022-09-23T14:52:07.601Z,61.79
2022-09-23T14:54:25.534Z,62.51
2022-09-23T14:56:28.340Z,61.05
2022-09-23T14:58:30.965Z,62.26
2022-09-23T15:00:33.568Z,61.33
2022-09-23T15:02:38.038Z,61.76
2022-09-23T15:04:40.787Z,61.87
2022-09-23T15:06:48.927Z,62.94
2022-09-23T15:08:55.505Z,61.87
2022-09-23T15:10:58.831Z,61.41
2022-09-23T15:13:07.351Z,61.74
2022-09-23T15:15:14.340Z,63.47
2022-09-23T15:17:26.842Z,62.11
2022-09-23T15:19:31.489Z,62.48
2022-09-23T15:21:41.040Z,63.36
2022-09-23T15:23:47.111Z,63.53
2022-09-23T15:25:52.503Z,63.46
2022-09-23T15:28:02.355Z,64.15
2022-09-23T15:30:16.100Z,63.98
2022-09-23T15:32:19.558Z,64.74
2022-09-23T15:34:22.163Z,64.95
2022-09-23T15:36:27.135Z,67.63
2022-09-23T15:38:29.986Z,65.61
2022-09-23T15:40:34.567Z,66.50
2022-09-23T15:42:38.913Z,66.10
2022-09-23T15:44:41.752Z,66.42
2022-09-23T15:46:47.161Z,65.78
2022-09-23T15:48:58.769Z,66.61
2022-09-23T15:51:06.797Z,65.13
2022-09-23T15:53:14.770Z,66.04
2022-09-23T15:55:21.226Z,67.21
2022-09-23T15:57:25.890Z,68.22
2022-09-23T15:59:31.004Z,71.48
2022-09-23T16:01:37.412Z,70.27
2022-09-23T16:03:40.090Z,68.78
2022-09-23T16:05:46.619Z,71.18
2022-09-23T16:07:52.099Z,68.06
2022-09-23T16:09:54.726Z,69.90
2022-09-23T16:11:57.558Z,69.52
2022-09-23T16:14:00.613Z,71.11
2022-09-23T16:16:05.018Z,71.24
2022-09-23T16:18:08.525Z,71.73
2022-09-23T16:20:11.646Z,73.13
2022-09-23T16:22:16.612Z,73.49
2022-09-23T16:24:22.522Z,71.25
2022-09-23T16:26:30.109Z,74.46
2022-09-23T16:28:32.939Z,74.24
2022-09-23T16:30:35.855Z,74.08
2022-09-23T16:32:39.963Z,73.26
2022-09-23T16:34:43.935Z,75.09
2022-09-23T16:36:47.646Z,75.54
2022-09-23T16:38:50.566Z,76.58
2022-09-23T16:40:53.481Z,80.58
2022-09-23T16:42:58.283Z,79.22
2022-09-23T16:45:00.925Z,79.57
2022-09-23T16:47:03.872Z,79.81
2022-09-23T16:49:08.791Z,81.09
2022-09-23T16:51:16.716Z,82.06
2022-09-23T16:53:19.388Z,81.84
2022-09-23T16:55:22.153Z,81.58
2022-09-23T16:57:24.783Z,82.56
2022-09-23T16:59:47.642Z,83.25
2022-09-23T17:02:08.029Z,84.85
2022-09-23T17:04:11.064Z,84.56
2022-09-23T17:06:14.761Z,84.22
2022-09-23T17:08:18.601Z,83.98
2022-09-23T17:10:21.403Z,82.74
2022-09-23T17:12:28.340Z,82.91
2022-09-23T17:14:32.043Z,86.17
2022-09-23T17:16:35.495Z,82.51
2022-09-23T17:18:39.796Z,82.95
2022-09-23T17:20:43.732Z,84.40
2022-09-23T17:22:46.369Z,85.68
2022-09-23T17:24:48.951Z,86.67
2022-09-23T17:26:53.244Z,85.75
2022-09-23T17:28:57.459Z,85.56
2022-09-23T17:31:02.181Z,85.05
2022-09-23T17:33:04.884Z,85.71
2022-09-23T17:35:08.306Z,85.85
2022-09-23T17:37:12.331Z,88.34
2022-09-23T17:39:14.983Z,90.04
2022-09-23T17:41:18.083Z,91.83
2022-09-23T17:43:25.690Z,91.50
2022-09-23T17:45:28.376Z,91.36
2022-09-23T17:47:33.563Z,90.26
2022-09-23T17:49:36.572Z,90.22
2022-09-23T17:51:39.801Z,90.06
2022-09-23T17:53:46.471Z,92.05
2022-09-23T17:55:56.123Z,93.47
2022-09-23T17:57:58.758Z,94.33
2022-09-23T18:00:01.461Z,94.94
2022-09-23T18:02:04.610Z,95.88
2022-09-23T18:04:07.441Z,95.42
2022-09-23T18:06:13.054Z,91.61
2022-09-23T18:08:15.684Z,94.37
2022-09-23T18:10:19.626Z,95.66
2022-09-23T18:12:22.288Z,96.28
2022-09-23T18:14:25.072Z,97.61
2022-09-23T18:16:30.959Z,96.43
2022-09-23T18:18:33.723Z,95.94
2022-09-23T18:20:36.401Z,96.65
2022-09-23T18:22:38.973Z,97.34
2022-09-23T18:24:42.303Z,97.21
2022-09-23T18:26:47.384Z,98.61
2022-09-23T18:28:52.771Z,99.66
2022-09-23T18:30:56.102Z,100.00
2022-09-23T18:32:58.703Z,100.00
2022-09-23T18:35:01.359Z,99.82
2022-09-23T18:37:08.659Z,100.00
2022-09-23T18:39:18.010Z,98.74
2022-09-23T18:41:21.014Z,98.22
2022-09-23T18:43:27.443Z,98.88
2022-09-23T18:45:32.202Z,99.31
2022-09-23T18:47:52.486Z,98.90
2022-09-23T18:50:12.949Z,100.00
2022-09-23T18:52:15.638Z,100.00
2022-09-23T18:54:18.687Z,100.00
2022-09-23T18:56:21.602Z,100.00
2022-09-23T18:58:25.606Z,98.23
2022-09-23T19:00:28.546Z,96.92
2022-09-23T19:02:32.582Z,97.59
2022-09-23T19:04:35.220Z,96.67
2022-09-23T19:06:37.895Z,94.06
2022-09-23T19:08:40.933Z,96.06
2022-09-23T19:10:43.659Z,95.67
2022-09-23T19:12:46.618Z,94.75
2022-09-23T19:14:50.744Z,93.44
2022-09-23T19:16:53.631Z,93.55
2022-09-23T19:18:56.207Z,93.32
2022-09-23T19:21:02.490Z,95.49
2022-09-23T19:23:07.456Z,96.40
2022-09-23T19:25:10.573Z,94.60
2022-09-23T19:27:13.181Z,95.18
2022-09-23T19:29:17.214Z,97.82
2022-09-23T19:31:23.226Z,99.44
2022-09-23T19:33:25.978Z,100.00
2022-09-23T19:35:29.370Z,100.00
2022-09-23T19:37:32.159Z,99.95
2022-09-23T19:39:37.343Z,98.92
2022-09-23T19:41:40.092Z,96.15
2022-09-23T19:43:42.679Z,96.00
2022-09-23T19:45:45.312Z,95.98
2022-09-23T19:47:54.183Z,93.25
2022-09-23T19:49:56.825Z,95.72
2022-09-23T19:52:00.297Z,98.34
2022-09-23T19:54:03.739Z,100.00
2022-09-23T19:56:06.933Z,97.56
2022-09-23T19:58:10.118Z,100.00
2022-09-23T20:00:15.291Z,99.04
2022-09-23T20:02:17.930Z,97.47
2022-09-23T20:04:22.525Z,100.00
2022-09-23T20:06:25.254Z,98.07
2022-09-23T20:08:27.873Z,100.00
2022-09-23T20:10:34.023Z,99.83
2022-09-23T20:12:37.143Z,99.56
2022-09-23T20:14:39.723Z,95.55
2022-09-23T20:16:42.553Z,99.17
2022-09-23T20:18:46.517Z,100.00
2022-09-23T20:20:55.971Z,99.58
2022-09-23T20:22:58.582Z,100.00
2022-09-23T20:25:02.538Z,100.00
2022-09-23T20:27:10.464Z,99.71
2022-09-23T20:29:13.454Z,100.00
2022-09-23T20:31:17.620Z,99.55
2022-09-23T20:33:22.268Z,100.00
2022-09-23T20:35:24.977Z,100.00
2022-09-23T20:37:30.636Z,100.00
2022-09-23T20:39:33.222Z,100.00
2022-09-23T20:41:38.301Z,100.00
2022-09-23T20:43:40.911Z,100.00
2022-09-23T20:45:50.730Z,100.00
2022-09-23T20:47:53.367Z,100.00
2022-09-23T20:49:55.996Z,100.00
2022-09-23T20:51:58.580Z,100.00
2022-09-23T20:54:02.714Z,100.00
2022-09-23T20:56:06.280Z,100.00
2022-09-23T20:58:09.163Z,100.00
2022-09-23T21:00:13.174Z,100.00
2022-09-23T21:02:16.150Z,100.00
2022-09-23T21:04:18.936Z,100.00
2022-09-23T21:06:27.960Z,100.00
2022-09-23T21:08:30.867Z,100.00
2022-09-23T21:10:35.105Z,100.00
2022-09-23T21:12:37.757Z,100.00
2022-09-23T21:14:40.820Z,100.00
2022-09-23T21:16:43.593Z,100.00
2022-09-23T21:18:47.107Z,100.00
2022-09-23T21:21:00.148Z,100.00
2022-09-23T21:23:02.763Z,100.00
2022-09-23T21:27:30.555Z,100.00
2022-09-23T21:29:33.175Z,100.00
2022-09-23T21:31:38.690Z,100.00
2022-09-23T21:33:41.608Z,100.00
2022-09-23T21:35:44.209Z,100.00
2022-09-23T21:37:47.071Z,100.00
2022-09-23T21:40:09.692Z,100.00
2022-09-23T21:42:12.365Z,100.00
2022-09-23T21:44:16.670Z,100.00
2022-09-23T21:46:21.570Z,100.00
2022-09-23T21:48:24.701Z,100.00
2022-09-23T21:50:29.877Z,100.00
2022-09-23T21:52:32.514Z,100.00
2022-09-23T21:54:35.149Z,100.00
2022-09-23T21:56:37.847Z,100.00
2022-09-23T21:58:41.683Z,100.00
2022-09-23T22:00:45.907Z,100.00
2022-09-23T22:02:48.817Z,100.00
2022-09-23T22:04:51.542Z,100.00
2022-09-23T22:06:54.854Z,100.00
2022-09-23T22:08:59.742Z,100.00
2022-09-23T22:11:02.878Z,100.00
2022-09-23T22:13:12.786Z,100.00
2022-09-23T22:15:17.987Z,100.00
2022-09-23T22:17:23.011Z,100.00
2022-09-23T22:19:27.258Z,100.00
2022-09-23T22:21:31.196Z,100.00
2022-09-23T22:23:33.809Z,100.00
2022-09-23T22:25:36.425Z,100.00
2022-09-23T22:27:59.112Z,100.00
2022-09-23T22:30:19.131Z,100.00
2022-09-23T22:32:41.481Z,100.00
2022-09-23T22:34:53.259Z,100.00
2022-09-23T22:36:57.502Z,100.00
2022-09-23T22:39:00.694Z,100.00
2022-09-23T22:41:03.477Z,100.00
2022-09-23T22:43:06.285Z,100.00
2022-09-23T22:45:10.578Z,100.00
2022-09-23T22:47:13.259Z,100.00
2022-09-23T22:49:19.036Z,100.00
2022-09-23T22:51:22.499Z,100.00
2022-09-23T22:53:25.101Z,100.00
2022-09-23T22:55:27.906Z,100.00
2022-09-23T22:57:31.175Z,100.00
2022-09-23T22:59:34.533Z,100.00
2022-09-23T23:01:37.280Z,100.00
2022-09-23T23:03:41.752Z,100.00
2022-09-23T23:05:45.739Z,100.00
2022-09-23T23:07:48.326Z,100.00
2022-09-23T23:09:51.637Z,100.00
2022-09-23T23:11:54.428Z,100.00
2022-09-23T23:14:01.291Z,100.00
2022-09-23T23:16:05.608Z,100.00
2022-09-23T23:18:08.237Z,100.00
2022-09-23T23:20:11.155Z,100.00
2022-09-23T23:22:15.140Z,100.00
2022-09-23T23:24:19.837Z,100.00
2022-09-23T23:26:24.442Z,100.00
2022-09-23T23:28:27.067Z,100.00
2022-09-23T23:30:29.708Z,100.00
2022-09-23T23:32:32.380Z,100.00
2022-09-23T23:34:34.987Z,100.00
2022-09-23T23:36:37.585Z,100.00
2022-09-23T23:38:43.867Z,100.00
2022-09-23T23:40:48.276Z,100.00
2022-09-23T23:42:51.288Z,100.00
2022-09-23T23:44:53.899Z,100.00
2022-09-23T23:46:56.519Z,100.00
2022-09-23T23:49:00.430Z,100.00
2022-09-23T23:51:05.314Z,100.00
2022-09-23T23:53:10.785Z,100.00
2022-09-23T23:55:15.940Z,100.00
2022-09-23T23:57:18.585Z,100.00
2022-09-23T23:59:21.786Z,100.00
